Time;durP1;ratioP1;P1;durP2;ratioP2;P2;SDS_P1;SDS_P2;PMS_P1;PMS_P2;Temp;Humidity;BMP_temperature;BMP_pressure;BME280_temperature;BME280_humidity;BME280_pressure;Samples;Min_cycle;Max_cycle;Signal;HPM_P1;HPM_P2
2022/09/11 00:01:39;;;;;;;1.83;0.93;;;18.60;53.50;;;;;;4136804;28;20038;-57
2022/09/11 00:04:02;;;;;;;2.28;1.00;;;18.60;52.70;;;;;;4142078;28;20044;-57
2022/09/11 00:06:26;;;;;;;2.65;0.70;;;18.50;52.60;;;;;;4120700;28;20443;-54
2022/09/11 00:08:52;;;;;;;2.58;1.05;;;18.50;52.70;;;;;;4133494;28;20597;-55
2022/09/11 00:11:19;;;;;;;2.45;0.98;;;18.50;53.00;;;;;;4117883;28;20029;-55
2022/09/11 00:13:43;;;;;;;1.17;0.80;;;18.40;53.10;;;;;;4129617;28;20038;-54
2022/09/11 00:16:20;;;;;;;2.10;0.97;;;18.40;53.40;;;;;;4132774;28;20171;-54
2022/09/11 00:18:42;;;;;;;4.03;1.13;;;18.40;53.70;;;;;;4116362;28;20138;-55
2022/09/11 00:21:07;;;;;;;2.60;1.23;;;18.40;53.50;;;;;;4128978;28;20026;-54
2022/09/11 00:23:30;;;;;;;2.03;0.80;;;18.40;53.40;;;;;;4133141;28;20053;-56
2022/09/11 00:25:53;;;;;;;1.58;0.82;;;18.40;53.30;;;;;;4136890;28;20045;-52
2022/09/11 00:28:23;;;;;;;1.15;0.80;;;18.40;53.80;;;;;;4135124;28;20600;-56
2022/09/11 00:30:47;;;;;;;1.52;0.60;;;18.40;54.10;;;;;;4120303;28;20501;-56
2022/09/11 00:33:14;;;;;;;1.33;0.60;;;18.30;54.40;;;;;;4122613;28;20604;-54
2022/09/11 00:35:36;;;;;;;1.85;0.90;;;18.30;54.60;;;;;;4114880;28;20100;-49
2022/09/11 00:37:59;;;;;;;0.85;0.70;;;18.30;54.70;;;;;;4124459;28;20141;-56
2022/09/11 00:40:24;;;;;;;1.55;0.90;;;18.40;54.70;;;;;;4126336;28;20077;-57
2022/09/11 00:42:52;;;;;;;1.38;0.80;;;18.30;54.70;;;;;;4126545;28;20428;-54
2022/09/11 00:45:24;;;;;;;1.33;0.90;;;18.30;54.70;;;;;;4129728;28;20069;-58
2022/09/11 00:47:49;;;;;;;1.38;0.80;;;18.30;54.90;;;;;;4123075;28;20121;-55
2022/09/11 00:50:16;;;;;;;2.03;0.70;;;18.30;55.00;;;;;;4122300;28;20538;-54
2022/09/11 00:52:48;;;;;;;2.33;0.60;;;18.30;55.10;;;;;;4125199;28;20454;-56
2022/09/11 00:55:14;;;;;;;1.55;0.93;;;18.30;55.20;;;;;;4127568;28;20042;-55
2022/09/11 00:57:46;;;;;;;1.65;0.80;;;18.30;55.40;;;;;;4125320;28;20044;-52
2022/09/11 01:00:11;;;;;;;2.22;0.88;;;18.30;55.50;;;;;;4124885;28;20038;-56
2022/09/11 01:02:36;;;;;;;0.90;0.65;;;18.30;55.60;;;;;;4125993;28;20104;-55
2022/09/11 01:05:00;;;;;;;2.28;1.00;;;18.30;55.70;;;;;;4133859;28;20050;-53
2022/09/11 01:07:24;;;;;;;0.80;0.63;;;18.30;55.80;;;;;;4132803;28;20038;-53
2022/09/11 01:09:47;;;;;;;1.25;0.88;;;18.30;55.90;;;;;;4136219;28;20051;-53
2022/09/11 01:12:28;;;;;;;1.23;0.77;;;18.30;55.90;;;;;;4142020;28;20047;-52
2022/09/11 01:15:19;;;;;;;1.55;0.93;;;18.30;56.00;;;;;;4109383;28;20153;-52
2022/09/11 01:17:54;;;;;;;1.85;1.15;;;18.30;56.10;;;;;;4131239;28;20508;-49
2022/09/11 01:20:58;;;;;;;2.40;0.90;;;18.30;56.20;;;;;;4127155;28;20112;-56
2022/09/11 01:24:08;;;;;;;1.65;1.05;;;18.30;56.20;;;;;;4126803;28;20030;-54
2022/09/11 01:26:52;;;;;;;1.67;1.20;;;18.30;56.30;;;;;;4140460;28;20062;-54
2022/09/11 01:29:18;;;;;;;1.67;1.42;;;18.30;57.00;;;;;;4133068;28;20313;-53
2022/09/11 01:31:58;;;;;;;2.47;1.23;;;18.30;56.40;;;;;;4139732;28;20446;-52
2022/09/11 01:34:49;;;;;;;1.77;1.15;;;18.30;56.40;;;;;;4137147;28;20084;-56
2022/09/11 01:37:23;;;;;;;1.55;1.25;;;18.30;56.40;;;;;;4135011;28;20037;-56
2022/09/11 01:40:03;;;;;;;1.38;1.10;;;18.30;56.30;;;;;;4136085;28;20452;-53
2022/09/11 01:42:30;;;;;;;2.03;1.38;;;18.30;56.40;;;;;;4122106;28;20166;-56
2022/09/11 01:44:56;;;;;;;2.33;1.52;;;18.30;56.30;;;;;;4140500;28;20091;-50
2022/09/11 01:47:21;;;;;;;1.75;1.45;;;18.30;56.30;;;;;;4139268;28;20041;-54
2022/09/11 01:49:54;;;;;;;2.17;1.45;;;18.30;56.30;;;;;;4134115;28;20041;-56
2022/09/11 01:52:22;;;;;;;2.95;1.30;;;18.40;56.30;;;;;;4127869;28;20127;-53
2022/09/11 01:55:27;;;;;;;2.97;1.50;;;18.40;56.40;;;;;;4132587;28;20192;-55
2022/09/11 01:57:56;;;;;;;2.20;1.42;;;18.40;56.20;;;;;;4135160;28;20054;-57
2022/09/11 02:00:19;;;;;;;1.52;1.40;;;18.40;56.10;;;;;;4137261;28;20045;-54
2022/09/11 02:02:51;;;;;;;2.25;1.63;;;18.40;56.00;;;;;;4142442;28;20049;-54
2022/09/11 02:05:21;;;;;;;2.20;1.70;;;18.40;55.80;;;;;;4133066;28;20124;-55
2022/09/11 02:07:55;;;;;;;2.60;1.63;;;18.40;55.80;;;;;;4136318;28;20491;-55
2022/09/11 02:10:27;;;;;;;4.78;2.03;;;18.40;55.60;;;;;;4138584;28;20098;-56
2022/09/11 02:13:19;;;;;;;3.50;1.90;;;18.40;55.50;;;;;;4137631;28;20029;-54
2022/09/11 02:15:50;;;;;;;2.10;1.70;;;18.40;55.30;;;;;;4137962;28;20042;-55
2022/09/11 02:18:40;;;;;;;4.32;2.20;;;18.50;55.60;;;;;;4112895;28;20057;-55
2022/09/11 02:21:02;;;;;;;2.20;1.65;;;18.50;55.50;;;;;;4135797;28;20045;-54
2022/09/11 02:23:25;;;;;;;3.47;1.98;;;18.50;55.40;;;;;;4136780;28;20033;-54
2022/09/11 02:25:48;;;;;;;2.65;1.90;;;18.50;55.50;;;;;;4132429;28;20568;-51
2022/09/11 02:28:11;;;;;;;2.47;1.90;;;18.50;55.60;;;;;;4140088;28;20046;-52
2022/09/11 02:30:33;;;;;;;3.63;2.10;;;18.50;55.60;;;;;;4133835;28;20052;-54
2022/09/11 02:32:56;;;;;;;2.85;1.80;;;18.50;55.50;;;;;;4142967;28;20530;-54
2022/09/11 02:35:19;;;;;;;3.20;2.00;;;18.50;55.40;;;;;;4140779;28;20046;-53
2022/09/11 02:37:44;;;;;;;2.55;1.65;;;18.50;55.30;;;;;;4128137;28;20481;-55
2022/09/11 02:40:18;;;;;;;2.28;1.67;;;18.60;55.40;;;;;;4120854;28;20050;-52
2022/09/11 02:43:03;;;;;;;3.22;1.63;;;18.60;55.40;;;;;;4139653;28;20033;-54
2022/09/11 02:45:37;;;;;;;2.30;1.60;;;18.60;55.30;;;;;;4137431;28;20060;-56
2022/09/11 02:48:33;;;;;;;2.95;1.73;;;18.60;55.20;;;;;;4132824;28;20041;-52
2022/09/11 02:51:08;;;;;;;2.53;1.80;;;18.60;55.20;;;;;;4136750;28;20132;-55
2022/09/11 02:53:45;;;;;;;;;;;18.60;55.10;;;;;;4137943;28;20124;-57
2022/09/11 02:56:23;;;;;;;3.17;1.60;;;18.70;55.10;;;;;;4129750;28;20004;-57
2022/09/11 02:59:16;;;;;;;2.63;1.70;;;18.70;55.00;;;;;;4131977;28;20049;-55
2022/09/11 03:01:51;;;;;;;4.15;1.63;;;18.70;54.90;;;;;;4123038;28;20084;-56
2022/09/11 03:04:14;;;;;;;2.78;1.58;;;18.70;54.90;;;;;;4136599;28;20041;-55
2022/09/11 03:06:37;;;;;;;2.30;1.42;;;18.70;54.80;;;;;;4140403;28;20057;-53
2022/09/11 03:08:59;;;;;;;2.53;1.50;;;18.80;54.80;;;;;;4132314;28;20049;-54
2022/09/11 03:11:22;;;;;;;2.42;1.50;;;18.80;54.80;;;;;;4139799;28;20132;-57
2022/09/11 03:13:45;;;;;;;2.33;1.58;;;18.80;54.70;;;;;;4138562;28;20488;-58
2022/09/11 03:16:08;;;;;;;2.00;1.20;;;18.80;54.70;;;;;;4126498;28;20092;-52
2022/09/11 03:18:32;;;;;;;2.38;1.60;;;18.80;54.70;;;;;;4129677;28;20052;-57
2022/09/11 03:20:54;;;;;;;2.00;1.13;;;18.80;54.70;;;;;;4131202;28;20428;-55
2022/09/11 03:23:17;;;;;;;3.33;1.50;;;18.90;54.60;;;;;;4133724;28;20049;-55
2022/09/11 03:25:42;;;;;;;1.83;1.38;;;18.90;54.70;;;;;;4132718;28;20041;-56
2022/09/11 03:28:06;;;;;;;3.60;1.30;;;18.90;54.70;;;;;;4136320;28;20033;-54
2022/09/11 03:30:29;;;;;;;2.63;1.30;;;19.00;54.70;;;;;;4127951;28;20456;-55
2022/09/11 03:32:53;;;;;;;2.13;1.40;;;19.00;54.60;;;;;;4138979;28;20579;-54
2022/09/11 03:35:15;;;;;;;1.60;1.00;;;19.00;54.60;;;;;;4136553;28;20041;-54
2022/09/11 03:37:38;;;;;;;1.90;1.10;;;19.00;54.60;;;;;;4130369;28;20886;-55
2022/09/11 03:40:02;;;;;;;2.58;1.10;;;19.10;54.70;;;;;;4118912;28;20437;-54
2022/09/11 03:42:24;;;;;;;1.38;1.25;;;19.10;54.50;;;;;;4132962;28;20041;-55
2022/09/11 03:44:47;;;;;;;1.63;1.13;;;19.20;54.60;;;;;;4136606;28;20041;-55
2022/09/11 03:47:10;;;;;;;1.80;0.83;;;19.20;54.50;;;;;;4139147;28;20056;-57
2022/09/11 03:49:33;;;;;;;1.67;1.10;;;19.20;54.50;;;;;;4131579;28;20037;-57
2022/09/11 03:51:56;;;;;;;2.50;1.13;;;19.30;54.40;;;;;;4130474;28;20037;-57
2022/09/11 03:54:19;;;;;;;1.33;0.90;;;19.30;54.40;;;;;;4137101;28;20045;-57
2022/09/11 03:56:42;;;;;;;1.70;0.90;;;19.40;54.40;;;;;;4112792;28;20313;-57
2022/09/11 03:59:05;;;;;;;0.85;0.75;;;19.40;54.20;;;;;;4132168;28;20181;-57
2022/09/11 04:01:28;;;;;;;1.05;0.70;;;19.50;54.10;;;;;;4128912;28;20030;-55
2022/09/11 04:03:50;;;;;;;1.73;1.02;;;19.50;54.10;;;;;;4124518;28;20529;-56
2022/09/11 04:06:13;;;;;;;1.85;1.25;;;19.60;54.10;;;;;;4121650;28;20101;-57
2022/09/11 04:08:36;;;;;;;1.30;0.88;;;19.60;53.90;;;;;;4123015;28;20053;-56
2022/09/11 04:11:03;;;;;;;0.63;0.55;;;19.70;53.90;;;;;;4128056;28;20484;-57
2022/09/11 04:13:30;;;;;;;1.75;0.90;;;19.70;53.80;;;;;;4122105;28;20478;-58
2022/09/11 04:15:53;;;;;;;1.45;0.70;;;19.80;53.70;;;;;;4127312;28;20619;-58
2022/09/11 04:18:15;;;;;;;1.40;0.90;;;19.90;53.60;;;;;;4115867;28;20141;-59
2022/09/11 04:20:41;;;;;;;1.23;0.80;;;19.90;53.70;;;;;;4121324;28;20107;-58
2022/09/11 04:23:04;;;;;;;1.15;0.80;;;20.00;53.60;;;;;;4123201;28;20042;-59
2022/09/11 04:25:26;;;;;;;0.98;0.75;;;20.10;53.60;;;;;;4128498;28;20379;-58
2022/09/11 04:27:49;;;;;;;0.73;0.60;;;20.10;53.50;;;;;;4128720;28;20512;-59
2022/09/11 04:30:12;;;;;;;2.10;1.02;;;20.20;53.40;;;;;;4124727;28;20056;-57
2022/09/11 04:32:35;;;;;;;1.75;0.70;;;20.20;53.30;;;;;;4121651;28;20141;-57
2022/09/11 04:34:57;;;;;;;0.93;0.63;;;20.30;53.30;;;;;;4125719;28;20080;-59
2022/09/11 04:37:20;;;;;;;1.58;0.80;;;20.40;53.40;;;;;;4121000;28;20171;-59
2022/09/11 04:39:43;;;;;;;0.57;0.55;;;20.40;53.20;;;;;;4120643;28;20429;-58
2022/09/11 04:42:06;;;;;;;1.20;0.80;;;20.50;53.30;;;;;;4129216;28;20417;-58
2022/09/11 04:44:31;;;;;;;1.25;0.60;;;20.50;53.20;;;;;;4129035;28;20037;-58
2022/09/11 04:46:55;;;;;;;1.65;0.90;;;20.60;53.10;;;;;;4122639;28;20046;-58
2022/09/11 04:49:17;;;;;;;0.93;0.60;;;20.70;53.00;;;;;;4121229;28;20042;-58
2022/09/11 04:51:41;;;;;;;0.85;0.60;;;20.70;53.00;;;;;;4124856;28;20038;-58
2022/09/11 04:54:04;;;;;;;1.58;0.77;;;20.80;52.90;;;;;;4123461;28;20096;-59
2022/09/11 04:56:29;;;;;;;1.33;0.40;;;20.90;52.80;;;;;;4127897;28;20045;-59
2022/09/11 04:59:04;;;;;;;0.60;0.40;;;20.90;52.60;;;;;;4129191;28;20108;-59
2022/09/11 05:01:29;;;;;;;0.50;0.50;;;21.00;52.70;;;;;;4121847;28;20124;-58
2022/09/11 05:03:52;;;;;;;0.85;0.70;;;21.00;52.70;;;;;;4111760;28;20577;-57
2022/09/11 05:06:15;;;;;;;0.73;0.50;;;21.10;52.50;;;;;;4118119;28;20038;-58
2022/09/11 05:08:38;;;;;;;0.88;0.55;;;21.10;52.50;;;;;;4118156;28;20107;-58
2022/09/11 05:11:01;;;;;;;0.52;0.40;;;21.20;52.50;;;;;;4123987;28;20104;-58
2022/09/11 05:13:24;;;;;;;1.55;0.60;;;21.20;52.40;;;;;;4120669;28;20034;-59
2022/09/11 05:15:47;;;;;;;1.33;0.60;;;21.30;52.40;;;;;;4127497;28;20040;-59
2022/09/11 05:18:10;;;;;;;1.65;0.80;;;21.30;52.30;;;;;;4125386;28;20442;-59
2022/09/11 05:20:33;;;;;;;1.55;0.52;;;21.30;52.20;;;;;;4127826;28;20404;-59
2022/09/11 05:22:57;;;;;;;0.50;0.47;;;21.40;52.20;;;;;;4124863;28;20037;-59
2022/09/11 05:25:20;;;;;;;0.80;0.57;;;21.40;52.10;;;;;;4133590;28;20037;-59
2022/09/11 05:27:42;;;;;;;0.90;0.50;;;21.50;52.10;;;;;;4136315;28;20042;-59
2022/09/11 05:30:05;;;;;;;1.23;0.50;;;21.50;52.70;;;;;;4128323;28;20034;-59
2022/09/11 05:32:28;;;;;;;1.08;0.45;;;21.50;52.60;;;;;;4130568;28;20077;-58
2022/09/11 05:34:51;;;;;;;0.75;0.40;;;21.60;51.90;;;;;;4126858;28;20053;-59
2022/09/11 05:37:13;;;;;;;1.90;0.77;;;21.60;51.80;;;;;;4128876;28;20041;-58
2022/09/11 05:39:36;;;;;;;1.95;0.60;;;21.70;51.80;;;;;;4130504;28;20499;-59
2022/09/11 05:41:58;;;;;;;0.55;0.55;;;21.70;51.80;;;;;;4135662;28;20506;-59
2022/09/11 05:44:21;;;;;;;0.75;0.70;;;21.70;51.70;;;;;;4129479;28;20467;-59
2022/09/11 05:46:44;;;;;;;1.13;0.70;;;21.80;51.70;;;;;;4142689;28;20037;-59
2022/09/11 05:49:07;;;;;;;1.20;0.73;;;21.80;51.60;;;;;;4145265;28;20117;-58
2022/09/11 05:51:34;;;;;;;1.13;0.70;;;21.90;51.60;;;;;;4139662;28;20057;-49
2022/09/11 05:53:57;;;;;;;2.83;1.17;;;21.90;51.60;;;;;;4133917;28;20034;-47
2022/09/11 05:56:21;;;;;;;1.08;0.90;;;22.00;51.60;;;;;;4129029;28;20045;-48
2022/09/11 05:58:46;;;;;;;1.27;0.80;;;22.00;51.60;;;;;;4126360;28;20081;-46
2022/09/11 06:01:12;;;;;;;1.45;0.88;;;22.00;51.60;;;;;;4133400;28;20456;-47
2022/09/11 06:03:36;;;;;;;1.83;0.98;;;22.00;51.60;;;;;;4133525;28;20037;-47
2022/09/11 06:06:03;;;;;;;2.50;1.02;;;22.00;51.70;;;;;;4127808;28;20030;-47
2022/09/11 06:08:26;;;;;;;2.30;1.17;;;22.00;51.70;;;;;;4128598;28;20045;-45
2022/09/11 06:10:48;;;;;;;1.67;1.10;;;22.00;51.70;;;;;;4128160;28;20530;-45
2022/09/11 06:13:11;;;;;;;2.55;1.27;;;22.00;51.70;;;;;;4123463;28;20041;-45
2022/09/11 06:15:34;;;;;;;2.55;1.25;;;22.00;51.70;;;;;;4124470;28;20040;-45
2022/09/11 06:17:58;;;;;;;1.85;1.02;;;22.00;51.70;;;;;;4133236;28;20092;-45
2022/09/11 06:20:21;;;;;;;3.25;1.55;;;22.00;51.70;;;;;;4127998;28;20532;-48
2022/09/11 06:22:43;;;;;;;0.98;0.88;;;22.00;51.70;;;;;;4128074;28;20048;-47
2022/09/11 06:25:06;;;;;;;1.20;1.10;;;22.00;51.70;;;;;;4123132;28;20542;-46
2022/09/11 06:27:29;;;;;;;1.13;0.90;;;22.00;51.70;;;;;;4123073;28;20523;-45
2022/09/11 06:29:52;;;;;;;3.03;1.00;;;22.10;51.70;;;;;;4119841;28;20092;-48
2022/09/11 06:32:15;;;;;;;1.85;1.00;;;22.10;51.60;;;;;;4119936;28;20058;-44
2022/09/11 06:34:37;;;;;;;1.92;1.10;;;22.10;51.60;;;;;;4122376;28;20033;-44
2022/09/11 06:37:00;;;;;;;2.10;1.08;;;22.10;51.70;;;;;;4129001;28;20046;-46
2022/09/11 06:39:22;;;;;;;1.80;1.00;;;22.10;51.60;;;;;;4122145;28;20042;-49
2022/09/11 06:41:45;;;;;;;1.65;1.20;;;22.10;51.50;;;;;;4127049;28;20033;-47
2022/09/11 06:44:08;;;;;;;1.33;1.13;;;22.10;51.40;;;;;;4126183;28;20068;-44
2022/09/11 06:46:31;;;;;;;2.90;1.40;;;22.10;51.40;;;;;;4125642;28;20113;-46
2022/09/11 06:48:56;;;;;;;2.03;1.02;;;22.10;51.40;;;;;;4115126;28;20046;-44
2022/09/11 06:51:21;;;;;;;1.63;1.10;;;22.20;51.30;;;;;;4130116;28;20025;-46
2022/09/11 06:53:46;;;;;;;1.23;1.10;;;22.20;51.40;;;;;;4121882;28;20373;-47
2022/09/11 06:56:12;;;;;;;1.33;1.08;;;22.20;51.40;;;;;;4134105;28;20030;-45
2022/09/11 06:58:34;;;;;;;2.00;0.90;;;22.20;51.40;;;;;;4133274;28;20103;-48
2022/09/11 07:01:05;;;;;;;1.67;1.17;;;22.20;51.40;;;;;;4139741;28;20068;-45
2022/09/11 07:03:27;;;;;;;1.65;1.10;;;22.20;51.30;;;;;;4123434;28;20041;-47
2022/09/11 07:05:50;;;;;;;1.90;1.20;;;22.20;51.20;;;;;;4129346;28;20041;-45
2022/09/11 07:08:12;;;;;;;1.52;1.00;;;22.20;51.10;;;;;;4136420;28;20581;-48
2022/09/11 07:10:35;;;;;;;3.13;1.27;;;22.10;50.90;;;;;;4134630;28;20117;-47
2022/09/11 07:12:57;;;;;;;0.98;0.90;;;22.10;50.90;;;;;;4134339;28;20530;-49
2022/09/11 07:15:20;;;;;;;1.08;0.98;;;22.10;51.20;;;;;;4132570;28;20427;-49
2022/09/11 07:17:43;;;;;;;2.55;1.05;;;22.10;51.30;;;;;;4130088;28;20096;-46
2022/09/11 07:20:08;;;;;;;0.93;0.82;;;22.00;51.40;;;;;;4132204;28;20466;-45
2022/09/11 07:22:30;;;;;;;1.67;1.17;;;22.00;51.40;;;;;;4134977;28;20052;-47
2022/09/11 07:24:53;;;;;;;1.33;1.00;;;21.90;51.20;;;;;;4135720;28;20041;-48
2022/09/11 07:27:18;;;;;;;2.05;1.02;;;21.90;51.10;;;;;;4136415;28;20522;-48
2022/09/11 07:29:40;;;;;;;1.35;0.95;;;21.90;51.10;;;;;;4137357;28;20556;-45
2022/09/11 07:32:03;;;;;;;1.23;0.90;;;21.80;51.40;;;;;;4132427;28;20049;-46
2022/09/11 07:34:26;;;;;;;1.00;0.88;;;21.80;51.70;;;;;;4132792;28;20503;-46
2022/09/11 07:36:50;;;;;;;1.48;0.70;;;21.80;52.00;;;;;;4140695;28;20106;-45
2022/09/11 07:39:13;;;;;;;0.63;0.63;;;21.70;51.90;;;;;;4138843;28;20046;-45
2022/09/11 07:41:35;;;;;;;0.95;0.60;;;21.70;52.00;;;;;;4133076;28;20088;-44
2022/09/11 07:44:00;;;;;;;1.08;0.75;;;21.70;52.20;;;;;;4137837;28;20037;-45
2022/09/11 07:46:26;;;;;;;1.25;0.70;;;21.70;52.20;;;;;;4138205;28;20125;-46
2022/09/11 07:48:48;;;;;;;1.48;0.57;;;21.60;52.30;;;;;;4133890;28;20435;-46
2022/09/11 07:51:13;;;;;;;2.28;0.80;;;21.60;52.30;;;;;;4135635;28;20481;-47
2022/09/11 07:53:42;;;;;;;1.40;1.00;;;21.60;52.40;;;;;;4134986;28;20037;-46
2022/09/11 07:56:08;;;;;;;2.75;1.08;;;21.60;52.60;;;;;;4130682;28;20038;-44
2022/09/11 07:58:39;;;;;;;1.30;0.50;;;21.60;52.70;;;;;;4130877;28;20494;-45
2022/09/11 08:01:04;;;;;;;1.38;0.80;;;21.50;52.70;;;;;;4132509;28;20045;-48
2022/09/11 08:03:26;;;;;;;1.33;0.82;;;21.50;52.80;;;;;;4135146;28;20458;-49
2022/09/11 08:05:49;;;;;;;1.90;0.90;;;21.50;52.90;;;;;;4133239;28;20304;-47
2022/09/11 08:08:12;;;;;;;0.73;0.65;;;21.50;52.90;;;;;;4137375;28;20041;-46
2022/09/11 08:10:39;;;;;;;1.77;1.00;;;21.50;53.10;;;;;;4137633;28;20038;-46
2022/09/11 08:13:04;;;;;;;1.48;0.77;;;21.40;53.00;;;;;;4135414;28;20528;-45
2022/09/11 08:15:27;;;;;;;1.95;0.93;;;21.40;53.10;;;;;;4133333;28;20423;-44
2022/09/11 08:17:50;;;;;;;1.38;0.82;;;21.40;53.30;;;;;;4132325;28;20052;-47
2022/09/11 08:20:13;;;;;;;1.47;0.90;;;21.40;53.20;;;;;;4123892;28;20041;-45
2022/09/11 08:22:35;;;;;;;1.00;0.82;;;21.30;53.30;;;;;;4126071;28;20761;-44
2022/09/11 08:24:58;;;;;;;0.70;0.70;;;21.30;53.30;;;;;;4133588;28;20040;-45
2022/09/11 08:27:20;;;;;;;1.38;0.82;;;21.30;53.40;;;;;;4127021;28;20034;-45
2022/09/11 08:29:43;;;;;;;1.67;1.10;;;21.30;53.40;;;;;;4127907;28;20045;-45
2022/09/11 08:32:06;;;;;;;1.45;0.82;;;21.30;53.40;;;;;;4127060;28;20052;-45
2022/09/11 08:34:29;;;;;;;1.30;0.70;;;21.30;53.50;;;;;;4132256;28;20319;-44
2022/09/11 08:36:52;;;;;;;1.35;0.95;;;21.30;53.50;;;;;;4128202;28;20034;-44
2022/09/11 08:39:18;;;;;;;1.30;0.80;;;21.30;53.50;;;;;;4128648;28;20054;-43
2022/09/11 08:41:58;;;;;;;1.70;1.08;;;21.20;53.50;;;;;;4130511;28;20033;-47
2022/09/11 08:44:48;;;;;;;1.60;0.90;;;21.20;53.60;;;;;;4136165;28;20042;-44
2022/09/11 08:47:17;;;;;;;1.98;1.13;;;21.20;53.70;;;;;;4139311;28;20599;-45
2022/09/11 08:49:43;;;;;;;1.67;1.08;;;21.20;53.70;;;;;;4132335;28;20133;-47
2022/09/11 08:52:07;;;;;;;2.15;1.30;;;21.20;53.80;;;;;;4131688;28;20037;-46
2022/09/11 08:54:36;;;;;;;1.67;1.10;;;21.20;54.30;;;;;;4120325;28;20049;-47
2022/09/11 08:57:18;;;;;;;2.55;1.70;;;21.20;54.30;;;;;;4127487;28;20643;-44
2022/09/11 09:00:15;;;;;;;3.08;1.75;;;21.20;54.30;;;;;;4121856;28;20159;-44
2022/09/11 09:03:17;;;;;;;3.13;1.70;;;21.20;54.30;;;;;;4136391;28;20112;-45
2022/09/11 09:05:52;;;;;;;4.72;2.20;;;21.20;54.50;;;;;;4112666;28;20038;-45
2022/09/11 09:08:40;;;;;;;5.32;2.33;;;21.10;54.50;;;;;;4132965;28;20048;-45
2022/09/11 09:11:31;;;;;;;4.25;2.50;;;21.20;54.70;;;;;;4143156;28;20057;-47
2022/09/11 09:14:14;;;;;;;4.88;2.30;;;21.10;54.60;;;;;;4116144;28;20504;-46
2022/09/11 09:16:51;;;;;;;6.82;2.75;;;21.10;55.10;;;;;;4117437;28;20040;-44
2022/09/11 09:19:19;;;;;;;7.13;2.28;;;21.20;55.90;;;;;;4119457;28;20058;-43
2022/09/11 09:22:07;;;;;;;4.82;2.47;;;21.20;56.30;;;;;;4115413;28;20136;-46
2022/09/11 09:24:54;;;;;;;9.60;2.53;;;21.20;56.40;;;;;;4122712;28;20042;-48
2022/09/11 09:27:33;;;;;;;10.82;2.85;;;21.30;56.60;;;;;;4119747;28;20041;-44
2022/09/11 09:29:58;;;;;;;6.63;2.10;;;21.30;57.50;;;;;;4126724;28;20438;-45
2022/09/11 09:32:31;;;;;;;6.20;2.13;;;21.30;56.90;;;;;;4116098;28;20056;-47
2022/09/11 09:35:00;;;;;;;4.78;2.13;;;21.40;57.00;;;;;;4122420;28;20037;-49
2022/09/11 09:37:25;;;;;;;10.55;1.90;;;21.40;57.10;;;;;;4124786;28;20034;-47
2022/09/11 09:39:49;;;;;;;6.35;2.20;;;21.40;56.70;;;;;;4125518;28;20515;-44
2022/09/11 09:42:15;;;;;;;4.70;2.20;;;21.50;56.70;;;;;;4119384;28;20487;-46
2022/09/11 09:45:00;;;;;;;4.60;2.38;;;21.50;56.80;;;;;;4123659;28;20092;-45
2022/09/11 09:47:22;;;;;;;4.38;2.00;;;21.50;56.80;;;;;;4121758;28;20049;-51
2022/09/11 09:49:46;;;;;;;3.15;1.73;;;21.50;56.90;;;;;;4121868;28;20382;-45
2022/09/11 09:52:21;;;;;;;3.88;1.83;;;21.60;56.90;;;;;;4127383;28;20048;-47
2022/09/11 09:54:51;;;;;;;4.07;1.92;;;21.60;56.80;;;;;;4107979;28;20050;-47
2022/09/11 09:57:15;;;;;;;3.65;1.90;;;21.60;56.80;;;;;;4129933;28;20224;-48
2022/09/11 09:59:52;;;;;;;5.40;1.70;;;21.60;56.90;;;;;;4133397;28;20049;-46
2022/09/11 10:02:41;;;;;;;3.97;1.83;;;21.60;57.00;;;;;;4128829;28;20037;-46
2022/09/11 10:05:25;;;;;;;3.20;1.55;;;21.70;56.90;;;;;;4135611;28;20073;-45
2022/09/11 10:07:52;;;;;;;2.20;1.30;;;21.70;56.90;;;;;;4126044;28;20042;-45
2022/09/11 10:10:31;;;;;;;3.33;1.50;;;21.70;56.90;;;;;;4112782;28;20104;-45
2022/09/11 10:13:07;;;;;;;2.83;1.85;;;21.70;57.00;;;;;;4135231;28;20038;-46
2022/09/11 10:15:30;;;;;;;2.65;1.67;;;21.70;56.90;;;;;;4127451;28;20459;-44
2022/09/11 10:17:56;;;;;;;2.97;1.60;;;21.70;56.90;;;;;;4124962;28;20034;-45
2022/09/11 10:20:21;;;;;;;2.75;1.45;;;21.70;56.80;;;;;;4134924;28;20126;-47
2022/09/11 10:22:45;;;;;;;2.90;1.63;;;21.80;56.80;;;;;;4135987;28;20045;-46
2022/09/11 10:25:28;;;;;;;3.75;1.75;;;21.80;56.80;;;;;;4134263;28;20056;-45
2022/09/11 10:28:14;;;;;;;12.87;2.97;;;21.80;56.80;;;;;;4126010;28;20073;-48
2022/09/11 10:30:52;;;;;;;7.53;1.90;;;21.80;56.70;;;;;;4131398;28;20109;-52
2022/09/11 10:33:21;;;;;;;5.97;1.70;;;21.80;56.70;;;;;;4126497;28;20065;-47
2022/09/11 10:35:53;;;;;;;4.68;1.88;;;21.70;56.70;;;;;;4126776;28;20086;-48
2022/09/11 10:38:18;;;;;;;3.75;1.45;;;21.70;56.70;;;;;;4120311;28;20568;-47
2022/09/11 10:40:46;;;;;;;5.10;2.00;;;21.70;57.00;;;;;;4125886;28;20034;-48
2022/09/11 10:43:23;;;;;;;3.78;1.60;;;21.70;57.00;;;;;;4120610;28;20500;-47
2022/09/11 10:46:02;;;;;;;8.68;1.40;;;21.70;57.00;;;;;;4123620;28;20052;-45
2022/09/11 10:48:25;;;;;;;3.40;1.40;;;21.70;57.00;;;;;;4124997;28;21773;-48
2022/09/11 10:51:05;;;;;;;2.63;1.50;;;21.70;57.10;;;;;;4126600;28;20583;-51
2022/09/11 10:53:29;;;;;;;6.20;1.55;;;21.70;57.00;;;;;;4124870;28;20052;-46
2022/09/11 10:56:04;;;;;;;;;;;21.60;57.10;;;;;;4118060;28;20338;-48
2022/09/11 10:58:34;;;;;;;3.15;1.60;;;21.60;57.10;;;;;;4124124;28;19921;-51
2022/09/11 11:00:57;;;;;;;3.75;1.70;;;21.60;57.10;;;;;;4123594;28;20618;-45
2022/09/11 11:03:28;;;;;;;2.03;1.15;;;21.60;57.10;;;;;;4125103;28;20488;-47
2022/09/11 11:05:57;;;;;;;5.30;1.63;;;21.60;57.10;;;;;;4123391;28;20419;-49
2022/09/11 11:08:59;;;;;;;1.33;1.23;;;21.60;57.10;;;;;;4129121;28;20042;-48
2022/09/11 11:11:58;;;;;;;3.92;1.55;;;21.60;57.10;;;;;;4127074;28;20027;-48
2022/09/11 11:15:01;;;;;;;3.30;1.27;;;21.50;57.10;;;;;;4125457;28;20424;-56
2022/09/11 11:17:37;;;;;;;2.88;1.25;;;21.50;57.10;;;;;;4126635;28;20038;-52
2022/09/11 11:20:16;;;;;;;2.85;1.08;;;21.50;57.20;;;;;;4123642;28;20077;-49
2022/09/11 11:22:50;;;;;;;5.38;1.65;;;21.50;57.10;;;;;;4126284;28;20495;-52
2022/09/11 11:25:21;;;;;;;1.67;1.17;;;21.50;57.30;;;;;;4125402;28;20041;-53
2022/09/11 11:27:48;;;;;;;2.65;1.30;;;21.50;57.20;;;;;;4126986;28;20444;-50
2022/09/11 11:30:20;;;;;;;4.90;1.48;;;21.40;57.10;;;;;;4126131;28;20072;-50
2022/09/11 11:32:48;;;;;;;2.55;1.25;;;21.40;57.00;;;;;;4124301;28;20111;-48
2022/09/11 11:35:29;;;;;;;2.22;1.25;;;21.40;56.90;;;;;;4126290;28;20074;-45
2022/09/11 11:38:06;;;;;;;2.50;1.00;;;21.40;56.80;;;;;;4125501;28;20042;-48
2022/09/11 11:40:39;;;;;;;3.13;1.20;;;21.40;56.80;;;;;;4125472;28;20578;-50
2022/09/11 11:43:12;;;;;;;3.05;1.20;;;21.40;56.80;;;;;;4122522;28;20843;-52
2022/09/11 11:45:56;;;;;;;2.67;1.00;;;21.40;56.80;;;;;;4122161;28;20041;-51
2022/09/11 11:48:50;;;;;;;1.95;1.13;;;21.40;56.70;;;;;;4123809;28;20508;-46
2022/09/11 11:51:26;;;;;;;1.92;1.00;;;21.30;56.70;;;;;;4123948;28;20202;-48
2022/09/11 11:54:05;;;;;;;5.22;1.42;;;21.30;56.70;;;;;;4122190;28;20053;-49
2022/09/11 11:56:52;;;;;;;2.35;1.35;;;21.30;56.60;;;;;;4119296;28;20045;-49
2022/09/11 11:59:50;;;;;;;2.28;1.20;;;21.30;56.50;;;;;;4120952;28;20045;-48
2022/09/11 12:02:12;;;;;;;2.72;1.00;;;21.30;56.50;;;;;;4121627;28;20048;-49
2022/09/11 12:04:39;;;;;;;1.00;0.73;;;21.20;56.40;;;;;;4124227;28;20587;-53
2022/09/11 12:07:03;;;;;;;3.50;0.88;;;21.20;56.40;;;;;;4129468;28;20523;-51
2022/09/11 12:09:26;;;;;;;1.55;0.70;;;21.20;56.50;;;;;;4123705;28;20515;-49
2022/09/11 12:11:52;;;;;;;1.80;0.63;;;21.20;56.30;;;;;;4124804;28;21241;-50
2022/09/11 12:14:34;;;;;;;3.13;0.73;;;21.20;56.40;;;;;;4118535;28;20356;-49
2022/09/11 12:17:17;;;;;;;2.30;0.70;;;21.20;56.50;;;;;;4129018;28;20045;-45
2022/09/11 12:20:11;;;;;;;2.78;0.95;;;21.20;56.50;;;;;;4132573;28;20050;-46
2022/09/11 12:22:44;;;;;;;3.10;1.15;;;21.20;55.80;;;;;;4127254;28;20227;-48
2022/09/11 12:25:30;;;;;;;2.78;0.70;;;21.10;55.70;;;;;;4128183;28;20044;-48
2022/09/11 12:28:09;;;;;;;8.30;1.30;;;21.10;55.60;;;;;;4123651;28;20149;-45
2022/09/11 12:31:02;;;;;;;13.80;1.60;;;21.10;55.60;;;;;;4135182;28;20038;-46
2022/09/11 12:33:44;;;;;;;9.15;1.67;;;21.10;55.40;;;;;;4123122;28;20161;-46
2022/09/11 12:36:30;;;;;;;4.93;1.20;;;21.10;55.50;;;;;;4128630;28;20042;-48
2022/09/11 12:39:15;;;;;;;12.73;1.48;;;21.10;55.40;;;;;;4123571;28;20057;-46
2022/09/11 12:41:37;;;;;;;2.80;1.05;;;21.10;55.40;;;;;;4127606;28;20034;-47
2022/09/11 12:44:03;;;;;;;2.55;0.98;;;21.00;55.00;;;;;;4123664;28;20041;-46
2022/09/11 12:46:26;;;;;;;2.40;1.10;;;21.00;55.10;;;;;;4131670;28;20041;-46
2022/09/11 12:48:50;;;;;;;2.70;0.90;;;21.00;55.00;;;;;;4121412;28;20066;-46
2022/09/11 12:51:39;;;;;;;;;;;21.00;55.00;;;;;;4123249;28;20038;-45
2022/09/11 12:54:14;;;;;;;7.97;0.80;;;21.00;55.00;;;;;;4121143;28;20000;-45
2022/09/11 12:56:44;;;;;;;3.22;0.95;;;20.90;54.60;;;;;;4125531;28;20433;-42
2022/09/11 12:59:09;;;;;;;1.83;0.70;;;20.90;54.80;;;;;;4125873;28;20459;-45